Time;durP1;ratioP1;P1;durP2;ratioP2;P2;SDS_P1;SDS_P2;PMS_P1;PMS_P2;Temp;Humidity;BMP_temperature;BMP_pressure;BME280_temperature;BME280_humidity;BME280_pressure;Samples;Min_cycle;Max_cycle;Signal;HPM_P1;HPM_P2
2023/06/17 00:00:08;;;;;;;10.73;5.97;;;;;;;12.99;69.41;96082.00;2026884;29;20095;-71
2023/06/17 00:01:09;;;;;;;10.95;5.05;;;;;;;12.97;69.39;96081.25;2026347;29;20065;-70
2023/06/17 00:02:10;;;;;;;8.43;5.43;;;;;;;12.97;69.25;96083.03;2026846;29;20080;-71
2023/06/17 00:03:11;;;;;;;10.68;5.72;;;;;;;12.95;68.69;96084.88;2026729;29;20389;-71
2023/06/17 00:04:12;;;;;;;12.40;6.25;;;;;;;12.94;68.71;96076.22;2026457;29;20053;-72
2023/06/17 00:05:13;;;;;;;11.50;6.45;;;;;;;12.86;68.85;96061.94;2026812;29;20044;-71
2023/06/17 00:06:15;;;;;;;9.43;5.47;;;;;;;12.92;69.00;96075.44;2026752;29;20040;-72
2023/06/17 00:07:16;;;;;;;10.25;5.57;;;;;;;12.91;69.43;96084.22;2026421;29;20049;-72
2023/06/17 00:08:17;;;;;;;8.80;5.03;;;;;;;12.88;69.14;96081.75;2026749;29;20040;-72
2023/06/17 00:09:18;;;;;;;9.90;5.63;;;;;;;12.82;69.05;96071.66;2026202;29;20060;-72
2023/06/17 00:10:19;;;;;;;9.50;5.88;;;;;;;12.81;69.55;96070.00;2025688;29;20059;-71
2023/06/17 00:11:22;;;;;;;8.88;5.78;;;;;;;12.86;69.70;96073.19;2026475;29;20052;-72
2023/06/17 00:12:29;;;;;;;8.95;6.00;;;;;;;12.76;69.90;96062.41;2026861;29;20048;-72
2023/06/17 00:13:30;;;;;;;8.00;5.57;;;;;;;12.76;69.38;96069.41;2026807;29;20048;-72
2023/06/17 00:14:32;;;;;;;10.77;5.95;;;;;;;12.80;69.62;96066.56;2018362;29;20069;-71
2023/06/17 00:15:33;;;;;;;10.85;6.13;;;;;;;12.79;70.18;96069.22;2018473;29;20063;-71
2023/06/17 00:16:36;;;;;;;9.48;5.63;;;;;;;12.80;70.00;96065.69;2026755;29;20503;-72
2023/06/17 00:17:40;;;;;;;7.78;5.10;;;;;;;12.71;69.68;96053.19;2026653;29;20424;-71
2023/06/17 00:18:41;;;;;;;6.82;5.10;;;;;;;12.75;69.99;96057.28;2026533;29;20056;-72
2023/06/17 00:19:43;;;;;;;8.50;5.70;;;;;;;12.74;70.34;96066.03;2026812;29;20049;-71
2023/06/17 00:20:46;;;;;;;14.40;5.65;;;;;;;12.60;69.53;96050.31;2026675;29;20382;-71
2023/06/17 00:21:52;;;;;;;12.10;5.45;;;;;;;12.71;69.71;96068.81;2026051;29;20055;-71
2023/06/17 00:22:53;;;;;;;9.20;5.43;;;;;;;12.66;70.02;96068.22;2025992;29;20064;-71
2023/06/17 00:23:54;;;;;;;9.25;5.53;;;;;;;12.60;70.16;96063.34;2026694;29;20079;-72
2023/06/17 00:24:56;;;;;;;11.02;5.70;;;;;;;12.57;70.98;96074.78;2026709;29;20418;-71
2023/06/17 00:25:57;;;;;;;8.70;5.82;;;;;;;12.46;70.70;96051.06;2026237;29;20052;-71
2023/06/17 00:26:58;;;;;;;12.30;5.93;;;;;;;12.57;70.52;96072.16;2026445;29;20448;-71
2023/06/17 00:27:59;;;;;;;11.43;5.63;;;;;;;12.54;70.08;96075.78;2026647;29;20036;-71
2023/06/17 00:29:00;;;;;;;11.20;5.53;;;;;;;12.50;69.97;96069.03;2025979;29;20056;-71
2023/06/17 00:30:02;;;;;;;7.82;5.60;;;;;;;12.50;70.61;96063.00;2018355;29;20056;-71
2023/06/17 00:31:03;;;;;;;13.10;6.10;;;;;;;12.48;70.61;96068.31;2010143;29;20049;-72
2023/06/17 00:32:05;;;;;;;10.45;5.80;;;;;;;12.51;69.97;96060.31;2017532;29;20053;-71
2023/06/17 00:33:06;;;;;;;9.60;5.97;;;;;;;12.53;70.04;96068.88;2017890;29;20053;-72
2023/06/17 00:34:07;;;;;;;9.63;6.03;;;;;;;12.48;70.18;96065.69;2018331;29;20048;-72
2023/06/17 00:35:08;;;;;;;10.38;5.75;;;;;;;12.46;70.30;96059.72;2018031;29;20057;-71
2023/06/17 00:36:09;;;;;;;11.18;5.82;;;;;;;12.36;70.52;96051.53;2017610;29;20053;-72
2023/06/17 00:37:10;;;;;;;10.88;6.32;;;;;;;12.41;70.40;96059.13;2010570;29;20463;-71
2023/06/17 00:38:11;;;;;;;11.85;5.88;;;;;;;12.40;70.40;96060.03;2018212;29;20184;-71
2023/06/17 00:39:15;;;;;;;8.75;5.93;;;;;;;12.37;71.20;96055.00;2017945;29;20064;-72
2023/06/17 00:40:16;;;;;;;12.43;5.68;;;;;;;12.33;70.50;96062.13;2017955;29;20071;-71
2023/06/17 00:41:17;;;;;;;9.05;5.50;;;;;;;12.30;70.94;96057.09;2026390;29;20041;-71
2023/06/17 00:42:19;;;;;;;9.80;6.32;;;;;;;12.28;71.32;96050.28;2025910;29;20068;-71
2023/06/17 00:43:20;;;;;;;8.88;5.82;;;;;;;12.26;70.80;96058.16;2017670;29;20447;-72
2023/06/17 00:44:22;;;;;;;10.52;6.07;;;;;;;12.22;71.69;96054.06;2017837;29;20057;-71
2023/06/17 00:45:23;;;;;;;6.85;5.45;;;;;;;12.23;71.21;96058.31;2026546;29;20052;-72
2023/06/17 00:46:41;;;;;;;11.10;6.05;;;;;;;12.22;71.65;96061.88;2026493;29;20386;-72
2023/06/17 00:47:43;;;;;;;8.63;6.32;;;;;;;12.18;71.80;96057.72;2017586;29;20092;-71
2023/06/17 00:48:44;;;;;;;12.05;6.38;;;;;;;12.11;71.05;96052.00;2002960;29;20058;-72
2023/06/17 00:49:45;;;;;;;8.05;6.13;;;;;;;12.09;72.02;96053.00;2002224;29;20411;-71
2023/06/17 00:50:47;;;;;;;10.90;6.70;;;;;;;12.07;71.57;96060.06;2002510;29;20069;-71
2023/06/17 00:51:48;;;;;;;11.77;6.70;;;;;;;12.02;71.90;96060.28;2002320;29;20113;-71
2023/06/17 00:52:50;;;;;;;10.70;7.22;;;;;;;12.00;71.74;96066.50;2010632;29;20069;-71
2023/06/17 00:53:52;;;;;;;10.77;6.55;;;;;;;11.94;72.69;96062.44;2010274;29;20430;-71
2023/06/17 00:54:53;;;;;;;11.30;6.75;;;;;;;11.95;72.44;96063.28;2017956;29;20093;-71
2023/06/17 00:55:54;;;;;;;11.40;6.65;;;;;;;11.93;72.83;96063.38;2018092;29;20037;-72
2023/06/17 00:56:57;;;;;;;11.40;7.15;;;;;;;11.82;72.24;96044.84;2026419;29;20405;-71
2023/06/17 00:57:59;;;;;;;10.55;6.75;;;;;;;11.90;72.29;96066.13;2010207;29;20049;-72
2023/06/17 00:59:00;;;;;;;10.38;8.00;;;;;;;11.85;72.90;96061.13;2010238;29;20057;-71
2023/06/17 01:00:05;;;;;;;11.55;7.30;;;;;;;11.75;73.21;96051.28;2009855;29;20049;-71
2023/06/17 01:01:06;;;;;;;11.18;7.40;;;;;;;11.79;72.59;96060.63;2018526;29;20033;-71
2023/06/17 01:02:10;;;;;;;9.38;7.25;;;;;;;11.78;72.62;96064.97;2025871;29;20503;-72
2023/06/17 01:03:11;;;;;;;10.45;7.32;;;;;;;11.85;73.36;96062.91;2025931;29;20382;-70
2023/06/17 01:04:15;;;;;;;13.05;8.27;;;;;;;11.72;73.18;96047.06;2018171;29;20052;-71
2023/06/17 01:05:16;;;;;;;10.93;7.78;;;;;;;11.77;73.68;96065.88;2009991;29;20513;-72
2023/06/17 01:06:33;;;;;;;10.93;7.82;;;;;;;11.70;73.63;96060.13;2002925;29;20064;-72
2023/06/17 01:07:40;;;;;;;10.65;7.35;;;;;;;11.75;72.88;96064.28;1999136;29;20396;-71
2023/06/17 01:08:44;;;;;;;13.40;8.50;;;;;;;11.73;73.79;96071.31;2006140;29;20402;-72
2023/06/17 01:09:46;;;;;;;11.10;7.93;;;;;;;11.67;73.21;96068.09;2011541;29;20060;-71
2023/06/17 01:10:56;;;;;;;14.90;7.90;;;;;;;11.62;73.29;96062.28;2010444;29;20462;-71
2023/06/17 01:11:57;;;;;;;11.50;7.90;;;;;;;11.60;73.81;96064.16;2010301;29;20048;-71
2023/06/17 01:12:59;;;;;;;12.98;8.60;;;;;;;11.56;74.02;96064.38;2003356;29;20451;-71
2023/06/17 01:14:00;;;;;;;10.13;8.20;;;;;;;11.59;74.22;96064.22;1995210;29;20066;-71
2023/06/17 01:15:01;;;;;;;11.18;7.97;;;;;;;11.58;73.98;96065.97;2002257;29;20061;-72
2023/06/17 01:16:02;;;;;;;12.40;8.18;;;;;;;11.46;73.90;96054.41;2001876;29;20065;-72
2023/06/17 01:17:04;;;;;;;13.00;8.27;;;;;;;11.59;73.93;96072.00;2002458;29;20061;-72
2023/06/17 01:18:07;;;;;;;12.05;8.25;;;;;;;11.57;74.00;96069.47;2010193;29;20049;-72
2023/06/17 01:19:18;;;;;;;12.07;8.00;;;;;;;11.55;73.85;96070.50;2017632;29;20378;-71
2023/06/17 01:20:19;;;;;;;11.15;8.45;;;;;;;11.45;74.35;96051.91;2011976;29;20136;-71
2023/06/17 01:21:23;;;;;;;12.40;8.00;;;;;;;11.48;74.41;96062.16;2002513;29;20076;-72
2023/06/17 01:22:24;;;;;;;15.02;8.65;;;;;;;11.48;74.42;96049.97;1988699;29;20055;-71
2023/06/17 01:23:35;;;;;;;13.30;8.40;;;;;;;11.52;74.64;96068.88;1995507;29;20066;-71
2023/06/17 01:24:37;;;;;;;14.38;8.90;;;;;;;11.47;74.03;96063.91;2004582;29;20073;-72
2023/06/17 01:25:39;;;;;;;13.13;8.40;;;;;;;11.45;75.00;96067.50;2017928;29;20489;-71
2023/06/17 01:26:40;;;;;;;11.82;8.52;;;;;;;11.44;74.12;96071.88;2010216;29;20049;-71
2023/06/17 01:27:41;;;;;;;13.70;9.07;;;;;;;11.43;74.39;96058.94;2001936;29;20062;-71
2023/06/17 01:28:44;;;;;;;10.95;8.20;;;;;;;11.39;74.36;96063.44;2017823;29;20061;-71
2023/06/17 01:29:48;;;;;;;13.13;9.18;;;;;;;11.36;74.98;96063.59;2025969;29;20053;-71
2023/06/17 01:30:54;;;;;;;13.18;8.32;;;;;;;11.24;75.37;96046.00;2025825;29;20132;-72
2023/06/17 01:31:59;;;;;;;12.98;8.70;;;;;;;11.35;74.87;96064.50;2026205;29;20048;-71
2023/06/17 01:33:01;;;;;;;13.48;8.82;;;;;;;11.30;75.97;96066.47;2017011;29;20413;-71
2023/06/17 01:34:02;;;;;;;10.88;9.18;;;;;;;11.26;75.69;96063.19;2018130;29;20083;-71
2023/06/17 01:35:06;;;;;;;11.20;8.10;;;;;;;11.23;75.73;96067.72;2002486;29;20164;-71
2023/06/17 01:36:15;;;;;;;13.13;8.75;;;;;;;11.15;75.41;96046.47;1987857;29;20483;-71
2023/06/17 01:37:22;;;;;;;11.57;9.10;;;;;;;11.20;76.04;96071.31;1989144;29;20051;-71
2023/06/17 01:38:37;;;;;;;12.93;8.82;;;;;;;11.18;75.97;96069.69;1997177;29;20574;-71
2023/06/17 01:39:40;;;;;;;11.88;9.15;;;;;;;11.18;75.75;96060.13;2011653;29;20045;-71
2023/06/17 01:40:41;;;;;;;13.20;8.63;;;;;;;11.18;76.27;96069.69;2011402;29;20459;-71
2023/06/17 01:41:46;;;;;;;14.13;8.73;;;;;;;11.14;76.70;96055.16;1995224;29;20073;-71
2023/06/17 01:42:48;;;;;;;13.52;9.00;;;;;;;11.22;75.78;96066.84;2002512;29;20444;-72
2023/06/17 01:43:49;;;;;;;14.77;9.07;;;;;;;11.24;76.60;96067.63;2009733;29;20065;-72
2023/06/17 01:44:51;;;;;;;11.30;8.85;;;;;;;11.24;76.24;96061.59;2017071;29;20061;-71
2023/06/17 01:45:52;;;;;;;17.08;9.35;;;;;;;11.26;76.17;96062.38;2001831;29;20506;-71
2023/06/17 01:46:53;;;;;;;12.10;9.38;;;;;;;11.26;76.55;96065.81;1987071;29;20058;-71
2023/06/17 01:47:54;;;;;;;12.75;8.65;;;;;;;11.21;75.59;96054.78;2002339;29;20058;-71
2023/06/17 01:48:55;;;;;;;11.32;8.98;;;;;;;11.19;75.85;96055.78;2002296;29;20057;-71
2023/06/17 01:49:58;;;;;;;13.40;9.52;;;;;;;11.14;76.57;96053.38;2009890;29;20138;-71
2023/06/17 01:51:00;;;;;;;11.43;8.90;;;;;;;11.18;76.54;96057.53;2017533;29;20052;-71
2023/06/17 01:52:02;;;;;;;11.10;8.57;;;;;;;11.15;76.50;96052.50;2009334;29;20049;-71
2023/06/17 01:53:03;;;;;;;12.48;9.05;;;;;;;11.14;75.76;96058.59;2017001;29;20064;-71
2023/06/17 01:54:06;;;;;;;14.18;8.57;;;;;;;11.16;75.98;96061.97;2017542;29;20056;-71
2023/06/17 01:55:07;;;;;;;11.20;8.70;;;;;;;11.18;76.51;96064.50;2017178;29;20054;-71
2023/06/17 01:56:09;;;;;;;13.05;9.27;;;;;;;11.14;76.45;96063.78;2017691;29;20068;-72
2023/06/17 01:57:10;;;;;;;13.10;8.90;;;;;;;11.19;77.06;96064.41;2002007;29;20057;-72
2023/06/17 01:58:11;;;;;;;11.82;9.13;;;;;;;11.21;75.92;96059.97;1994859;29;20134;-72
2023/06/17 01:59:12;;;;;;;10.20;8.60;;;;;;;11.20;76.09;96060.91;2017663;29;20044;-72
2023/06/17 02:00:13;;;;;;;12.63;9.25;;;;;;;11.17;76.37;96063.66;2025411;29;20057;-71
2023/06/17 02:01:26;;;;;;;13.38;9.40;;;;;;;11.15;76.45;96056.84;2025642;29;20105;-71
2023/06/17 02:02:27;;;;;;;13.57;9.32;;;;;;;11.13;76.85;96056.91;2025586;29;20052;-72
2023/06/17 02:03:28;;;;;;;12.52;9.07;;;;;;;11.12;76.40;96062.19;2025916;29;20060;-72
2023/06/17 02:04:29;;;;;;;13.23;9.43;;;;;;;11.09;77.10;96057.13;2025586;29;20061;-71
2023/06/17 02:05:30;;;;;;;16.23;9.40;;;;;;;11.08;77.02;96060.66;2017430;29;20063;-71
2023/06/17 02:06:31;;;;;;;12.40;9.27;;;;;;;11.04;77.34;96053.00;2017364;29;20437;-71
2023/06/17 02:07:33;;;;;;;11.57;9.05;;;;;;;11.06;77.16;96059.88;2017702;29;20057;-71
2023/06/17 02:08:34;;;;;;;10.43;8.60;;;;;;;11.02;76.95;96064.38;2002283;29;20553;-71
2023/06/17 02:09:37;;;;;;;12.48;8.80;;;;;;;10.99;76.89;96054.16;2010275;29;20128;-71
2023/06/17 02:10:38;;;;;;;14.38;9.48;;;;;;;10.99;77.12;96062.78;2025469;29;20389;-71
2023/06/17 02:11:39;;;;;;;12.07;9.40;;;;;;;11.01;77.22;96058.34;2017852;29;20102;-71
2023/06/17 02:12:41;;;;;;;12.18;9.23;;;;;;;11.01;77.64;96062.69;2017475;29;20064;-71
2023/06/17 02:13:42;;;;;;;14.55;9.45;;;;;;;10.95;77.76;96053.44;2017479;29;20052;-71
2023/06/17 02:14:44;;;;;;;13.52;9.60;;;;;;;10.99;77.16;96062.78;2009852;29;20053;-72
2023/06/17 02:15:45;;;;;;;13.02;9.13;;;;;;;10.98;76.96;96060.25;2017835;29;20049;-72
2023/06/17 02:16:47;;;;;;;13.13;9.52;;;;;;;10.96;76.97;96057.72;2017145;29;20057;-72
2023/06/17 02:17:48;;;;;;;12.05;8.48;;;;;;;10.93;77.13;96057.03;2010037;29;20053;-71
2023/06/17 02:18:54;;;;;;;11.60;8.68;;;;;;;10.89;77.35;96066.72;2010055;29;20053;-71
2023/06/17 02:19:55;;;;;;;12.32;9.57;;;;;;;10.84;77.12;96054.88;2017129;29;20064;-71
2023/06/17 02:20:56;;;;;;;15.52;9.90;;;;;;;10.75;78.18;96053.56;2017213;29;20080;-70
2023/06/17 02:21:58;;;;;;;13.98;9.80;;;;;;;10.85;77.68;96059.97;2017504;29;20151;-71
2023/06/17 02:23:00;;;;;;;12.18;9.45;;;;;;;10.80;78.28;96060.22;2025825;29;20422;-71
2023/06/17 02:24:01;;;;;;;13.95;9.55;;;;;;;10.78;77.92;96059.44;2016878;29;20053;-71
2023/06/17 02:25:03;;;;;;;11.07;9.35;;;;;;;10.75;77.88;96058.75;2009662;29;20045;-72
2023/06/17 02:26:04;;;;;;;12.23;9.73;;;;;;;10.72;78.38;96064.94;2009720;29;20049;-71
2023/06/17 02:27:06;;;;;;;13.30;9.80;;;;;;;10.69;78.86;96064.22;2009871;29;20076;-71
2023/06/17 02:28:08;;;;;;;13.13;8.90;;;;;;;10.68;78.37;96063.38;2009940;29;20053;-71
2023/06/17 02:29:09;;;;;;;13.73;9.32;;;;;;;10.61;78.65;96048.97;2017085;29;20076;-71
2023/06/17 02:30:11;;;;;;;15.25;9.82;;;;;;;10.69;78.43;96059.00;2017233;29;20060;-71
2023/06/17 02:31:12;;;;;;;13.70;9.35;;;;;;;10.67;78.79;96058.28;2017415;29;20052;-71
2023/06/17 02:32:14;;;;;;;13.25;9.32;;;;;;;10.66;78.61;96062.59;2016672;29;20461;-71
2023/06/17 02:33:18;;;;;;;13.23;9.63;;;;;;;10.65;78.49;96057.50;2016735;29;20077;-71
2023/06/17 02:34:20;;;;;;;13.73;9.95;;;;;;;10.66;78.66;96052.22;2010253;29;20098;-71
2023/06/17 02:35:21;;;;;;;13.35;9.25;;;;;;;10.64;79.21;96056.66;2009448;29;20065;-71
2023/06/17 02:36:22;;;;;;;13.82;9.63;;;;;;;10.61;79.08;96059.38;2009403;29;20068;-71
2023/06/17 02:37:23;;;;;;;15.57;9.93;;;;;;;10.65;78.69;96060.09;2017814;29;20113;-71
2023/06/17 02:38:25;;;;;;;13.23;9.90;;;;;;;10.64;78.34;96063.56;2017566;29;20053;-71
2023/06/17 02:39:26;;;;;;;13.02;9.25;;;;;;;10.62;79.19;96058.47;2017120;29;20049;-71
2023/06/17 02:40:28;;;;;;;15.43;10.13;;;;;;;10.59;78.66;96063.81;2009882;29;20064;-71
2023/06/17 02:41:29;;;;;;;13.95;10.25;;;;;;;10.56;79.39;96063.97;2009983;29;20057;-71
2023/06/17 02:42:30;;;;;;;14.63;10.52;;;;;;;10.55;79.36;96057.06;2016782;29;20068;-71
2023/06/17 02:43:32;;;;;;;11.73;9.85;;;;;;;10.57;78.84;96057.84;2017477;29;20461;-72
2023/06/17 02:44:33;;;;;;;14.15;10.02;;;;;;;10.57;78.68;96068.22;2017353;29;20049;-71
2023/06/17 02:45:34;;;;;;;12.88;10.10;;;;;;;10.55;78.88;96057.06;2025235;29;20060;-71
2023/06/17 02:46:35;;;;;;;14.85;9.63;;;;;;;10.53;78.62;96067.53;2025239;29;20350;-72
2023/06/17 02:47:37;;;;;;;13.10;10.23;;;;;;;10.42;79.06;96042.97;2016616;29;20064;-71
2023/06/17 02:48:38;;;;;;;14.10;10.25;;;;;;;10.47;78.81;96056.56;2017505;29;20068;-71
2023/06/17 02:49:40;;;;;;;13.70;10.23;;;;;;;10.39;78.96;96051.72;2025791;29;20048;-71
2023/06/17 02:50:41;;;;;;;12.18;9.25;;;;;;;10.44;79.55;96061.91;2017273;29;20052;-71
2023/06/17 02:51:42;;;;;;;16.38;9.82;;;;;;;10.42;79.78;96061.97;2016924;29;20057;-71
2023/06/17 02:52:46;;;;;;;14.95;10.32;;;;;;;10.43;80.07;96060.25;2009659;29;20061;-72
2023/06/17 02:53:47;;;;;;;13.27;9.70;;;;;;;10.44;79.93;96062.75;2010053;29;20094;-71
2023/06/17 02:54:51;;;;;;;14.90;10.23;;;;;;;10.42;79.96;96058.53;2009936;29;20057;-71
2023/06/17 02:55:55;;;;;;;15.55;10.30;;;;;;;10.28;79.69;96044.44;2017418;29;20076;-72
2023/06/17 02:56:57;;;;;;;11.25;9.65;;;;;;;10.34;79.54;96059.75;2016845;29;20076;-71
2023/06/17 02:57:58;;;;;;;14.57;9.57;;;;;;;10.34;79.83;96058.88;2009346;29;20062;-71
2023/06/17 02:59:04;;;;;;;15.57;10.57;;;;;;;10.30;80.51;96062.53;2009908;29;20050;-72
2023/06/17 03:00:06;;;;;;;12.75;10.38;;;;;;;10.28;80.42;96066.94;2009737;29;20072;-71
2023/06/17 03:01:09;;;;;;;15.90;10.38;;;;;;;10.26;80.13;96068.72;2009844;29;20057;-71
2023/06/17 03:02:10;;;;;;;13.35;10.43;;;;;;;10.23;80.10;96063.69;2009074;29;20061;-71
2023/06/17 03:03:11;;;;;;;14.10;10.32;;;;;;;10.18;80.22;96060.44;2009577;29;20050;-71
2023/06/17 03:04:12;;;;;;;13.55;10.60;;;;;;;10.15;80.34;96061.44;2017466;29;20092;-72
2023/06/17 03:05:14;;;;;;;14.98;10.75;;;;;;;10.13;80.31;96068.44;2016683;29;20060;-71
2023/06/17 03:06:15;;;;;;;16.10;10.50;;;;;;;10.11;80.62;96065.91;2017267;29;20397;-71
2023/06/17 03:07:20;;;;;;;14.82;10.20;;;;;;;10.08;81.12;96066.06;2024678;29;20381;-71
2023/06/17 03:08:22;;;;;;;13.75;10.27;;;;;;;10.06;81.13;96069.63;2016602;29;20096;-72
2023/06/17 03:09:23;;;;;;;13.98;10.15;;;;;;;10.08;81.30;96070.41;2009466;29;20045;-71
2023/06/17 03:10:24;;;;;;;13.40;10.25;;;;;;;10.07;80.86;96060.94;2009599;29;20441;-71
2023/06/17 03:11:36;;;;;;;13.93;9.88;;;;;;;10.00;81.44;96051.75;2010812;29;20163;-71
2023/06/17 03:12:39;;;;;;;12.00;10.25;;;;;;;10.05;81.47;96061.00;2009534;29;20050;-72
2023/06/17 03:13:40;;;;;;;12.68;10.15;;;;;;;10.05;81.41;96061.00;2009117;29;20053;-71
2023/06/17 03:14:50;;;;;;;13.60;10.40;;;;;;;10.06;81.82;96062.69;2017041;29;20053;-71
2023/06/17 03:15:53;;;;;;;15.30;10.38;;;;;;;10.05;81.06;96058.41;2009571;29;20051;-72
2023/06/17 03:16:57;;;;;;;14.65;10.32;;;;;;;10.08;81.56;96065.22;2017034;29;20068;-71
2023/06/17 03:17:58;;;;;;;14.38;10.18;;;;;;;10.06;81.70;96057.50;2017123;29;20045;-71
2023/06/17 03:19:01;;;;;;;15.90;10.90;;;;;;;10.06;81.43;96067.03;2009172;29;20053;-71
2023/06/17 03:20:06;;;;;;;16.05;10.23;;;;;;;10.04;81.83;96059.31;2009624;29;20510;-72
2023/06/17 03:21:08;;;;;;;12.50;10.25;;;;;;;10.07;81.31;96063.53;2017503;29;20045;-71
2023/06/17 03:22:09;;;;;;;13.48;9.95;;;;;;;10.05;81.63;96065.34;2016600;29;20060;-71
2023/06/17 03:23:15;;;;;;;15.20;10.63;;;;;;;10.06;81.42;96067.03;2009751;29;20046;-71
2023/06/17 03:24:16;;;;;;;14.52;10.13;;;;;;;10.07;81.48;96061.75;2009641;29;20049;-72
2023/06/17 03:25:18;;;;;;;13.95;10.23;;;;;;;10.08;81.04;96073.00;2009576;29;20045;-71
2023/06/17 03:26:22;;;;;;;13.82;10.48;;;;;;;10.08;81.14;96070.41;2009588;29;20180;-72
2023/06/17 03:27:23;;;;;;;13.05;10.70;;;;;;;10.11;81.54;96068.50;2009924;29;20058;-71
2023/06/17 03:28:25;;;;;;;13.40;10.63;;;;;;;10.09;81.36;96059.94;2017056;29;20044;-71
2023/06/17 03:29:26;;;;;;;13.65;10.27;;;;;;;10.08;81.01;96062.63;2016483;29;20056;-71
2023/06/17 03:30:28;;;;;;;13.20;10.10;;;;;;;10.07;81.30;96068.72;2017268;29;20068;-71
2023/06/17 03:31:30;;;;;;;13.07;10.65;;;;;;;10.10;81.37;96068.56;2024964;29;20067;-71
2023/06/17 03:32:31;;;;;;;12.07;9.52;;;;;;;10.00;81.06;96046.56;2016643;29;20070;-71
2023/06/17 03:33:32;;;;;;;17.80;10.52;;;;;;;10.08;81.17;96070.41;2009117;29;20070;-71
2023/06/17 03:34:33;;;;;;;13.13;9.90;;;;;;;10.06;81.72;96073.06;2016969;29;20053;-72
2023/06/17 03:35:38;;;;;;;15.80;11.13;;;;;;;10.06;81.74;96072.22;2009759;29;20461;-70
2023/06/17 03:36:39;;;;;;;14.07;10.02;;;;;;;10.05;81.21;96068.78;2009483;29;20067;-72
2023/06/17 03:37:41;;;;;;;13.88;10.43;;;;;;;10.07;81.20;96071.31;2016977;29;20053;-71
2023/06/17 03:38:42;;;;;;;15.93;10.43;;;;;;;10.07;80.95;96071.31;2009151;29;20065;-71
2023/06/17 03:39:43;;;;;;;14.02;10.23;;;;;;;10.06;81.79;96080.00;2009168;29;20536;-71
2023/06/17 03:40:46;;;;;;;12.48;9.45;;;;;;;9.98;81.65;96063.94;2009457;29;20061;-71
2023/06/17 03:41:47;;;;;;;12.25;10.15;;;;;;;10.05;81.84;96073.97;2009657;29;20057;-71
2023/06/17 03:42:48;;;;;;;13.60;10.07;;;;;;;10.04;81.68;96077.47;2016614;29;20067;-71
2023/06/17 03:43:50;;;;;;;14.32;10.27;;;;;;;10.03;81.29;96080.16;2008780;29;20057;-71
2023/06/17 03:44:51;;;;;;;13.85;10.15;;;;;;;10.04;81.74;96076.63;2010887;29;20068;-71
2023/06/17 03:45:53;;;;;;;15.20;9.93;;;;;;;10.03;81.49;96082.75;2010810;29;20058;-71
2023/06/17 03:46:56;;;;;;;14.27;10.40;;;;;;;9.96;81.48;96065.75;2018229;29;20052;-71
2023/06/17 03:47:58;;;;;;;17.55;10.82;;;;;;;10.03;82.05;96075.78;2018630;29;20048;-71
2023/06/17 03:48:59;;;;;;;13.88;9.88;;;;;;;10.06;81.96;96074.81;2010838;29;20056;-71
2023/06/17 03:50:01;;;;;;;13.55;10.43;;;;;;;10.06;81.57;96077.41;2010931;29;20045;-71
2023/06/17 03:51:03;;;;;;;13.73;10.60;;;;;;;10.08;82.21;96079.03;2010898;29;20041;-71
2023/06/17 03:52:05;;;;;;;14.68;10.73;;;;;;;10.11;81.79;96080.66;2010842;29;20052;-71
2023/06/17 03:53:08;;;;;;;13.45;9.90;;;;;;;10.12;81.83;96077.97;2010741;29;20041;-71
2023/06/17 03:54:10;;;;;;;15.85;11.05;;;;;;;10.13;81.62;96078.81;2011046;29;20065;-71
2023/06/17 03:55:12;;;;;;;17.58;10.80;;;;;;;10.07;81.47;96063.53;2010406;29;20064;-71
2023/06/17 03:56:13;;;;;;;14.38;10.55;;;;;;;10.19;81.78;96075.97;2010234;29;20058;-71
2023/06/17 03:57:14;;;;;;;12.85;10.30;;;;;;;10.24;82.09;96081.78;2011006;29;20101;-71
2023/06/17 03:58:17;;;;;;;15.65;10.85;;;;;;;10.29;81.93;96074.69;2010427;29;20053;-71
2023/06/17 03:59:18;;;;;;;13.20;10.88;;;;;;;10.32;81.36;96079.72;2018610;29;20056;-71
2023/06/17 04:00:22;;;;;;;16.52;10.52;;;;;;;10.35;80.93;96077.00;2018516;29;20135;-71
2023/06/17 04:01:23;;;;;;;14.60;10.73;;;;;;;10.39;80.83;96075.09;2010895;29;20053;-71
2023/06/17 04:02:24;;;;;;;13.48;10.50;;;;;;;10.42;80.28;96076.72;2017583;29;20167;-71
2023/06/17 04:03:26;;;;;;;13.70;10.88;;;;;;;10.45;80.51;96076.56;2017899;29;20168;-71
2023/06/17 04:04:28;;;;;;;12.75;9.82;;;;;;;10.48;80.19;96084.25;2018351;29;20052;-71
2023/06/17 04:05:31;;;;;;;11.48;9.50;;;;;;;10.52;80.59;96080.56;2018460;29;20056;-71
2023/06/17 04:06:32;;;;;;;13.05;10.15;;;;;;;10.55;79.88;96083.88;2010359;29;20065;-71
2023/06/17 04:07:34;;;;;;;14.23;10.05;;;;;;;10.58;79.74;96085.47;2010847;29;20065;-71
2023/06/17 04:08:35;;;;;;;13.93;10.38;;;;;;;10.61;79.98;96080.16;2018207;29;20053;-72
2023/06/17 04:09:37;;;;;;;13.60;9.98;;;;;;;10.65;79.62;96079.09;2026857;29;20485;-71
2023/06/17 04:10:38;;;;;;;13.52;9.38;;;;;;;10.67;79.34;96085.06;2026727;29;20473;-71
2023/06/17 04:11:40;;;;;;;14.38;9.70;;;;;;;10.72;78.70;96074.44;2017846;29;20121;-71
2023/06/17 04:12:41;;;;;;;13.13;10.18;;;;;;;10.76;79.24;96082.03;2010731;29;20508;-71
2023/06/17 04:13:42;;;;;;;16.50;10.23;;;;;;;10.81;78.73;96084.44;2018503;29;20056;-71
2023/06/17 04:14:43;;;;;;;15.30;10.68;;;;;;;10.84;78.70;96080.84;2026196;29;20060;-71
2023/06/17 04:15:45;;;;;;;14.63;11.13;;;;;;;10.79;78.00;96065.47;2026727;29;20372;-72
2023/06/17 04:16:46;;;;;;;10.68;9.02;;;;;;;10.93;78.31;96078.66;2017678;29;20051;-71
2023/06/17 04:17:49;;;;;;;14.55;10.20;;;;;;;10.95;77.77;96083.78;2010702;29;20053;-71
2023/06/17 04:18:52;;;;;;;14.77;10.60;;;;;;;10.96;78.02;96080.25;2010300;29;20552;-71
2023/06/17 04:19:56;;;;;;;14.05;10.15;;;;;;;11.00;77.52;96077.44;2017967;29;20187;-71
2023/06/17 04:20:59;;;;;;;14.13;10.60;;;;;;;11.03;77.72;96085.09;2018236;29;20049;-71
2023/06/17 04:22:06;;;;;;;13.18;9.43;;;;;;;11.08;76.81;96084.03;2018221;29;20556;-71
2023/06/17 04:23:07;;;;;;;14.55;10.20;;;;;;;11.11;77.40;96084.72;2017924;29;20055;-71
2023/06/17 04:24:08;;;;;;;13.30;9.38;;;;;;;11.14;76.78;96078.53;2018302;29;20052;-71
2023/06/17 04:25:10;;;;;;;14.07;10.25;;;;;;;11.07;76.92;96067.63;2026154;29;20074;-71
2023/06/17 04:26:15;;;;;;;11.93;9.45;;;;;;;11.27;76.41;96085.66;2017664;29;20175;-71
2023/06/17 04:27:17;;;;;;;15.52;10.13;;;;;;;11.22;76.03;96077.25;2017770;29;20053;-71
2023/06/17 04:28:18;;;;;;;14.50;10.05;;;;;;;11.30;76.77;96089.03;2018685;29;20052;-71
2023/06/17 04:29:20;;;;;;;12.57;10.00;;;;;;;11.34;76.20;96088.84;2025680;29;20048;-71
2023/06/17 04:30:21;;;;;;;14.60;10.45;;;;;;;11.40;75.46;96085.91;2017452;29;20049;-70
2023/06/17 04:31:22;;;;;;;12.30;10.23;;;;;;;11.43;75.92;96087.53;2018462;29;20049;-71
2023/06/17 04:32:25;;;;;;;14.23;9.98;;;;;;;11.39;75.19;96073.84;2017566;29;20490;-71
2023/06/17 04:33:30;;;;;;;12.10;9.93;;;;;;;11.46;75.11;96085.59;2017864;29;20072;-71
2023/06/17 04:34:31;;;;;;;13.00;9.60;;;;;;;11.48;75.08;96088.97;2010545;29;20068;-71
2023/06/17 04:35:32;;;;;;;13.75;9.93;;;;;;;11.56;75.04;96086.00;2018385;29;20048;-71
2023/06/17 04:36:35;;;;;;;14.38;9.60;;;;;;;11.60;74.70;96084.94;2017866;29;20057;-71
2023/06/17 04:37:37;;;;;;;13.95;9.95;;;;;;;11.65;74.67;96092.50;2017844;29;20056;-71
2023/06/17 04:38:39;;;;;;;13.32;9.52;;;;;;;11.67;74.26;96091.50;2010397;29;20049;-71
2023/06/17 04:39:42;;;;;;;11.40;9.18;;;;;;;11.73;74.06;96094.72;2010524;29;20049;-71
2023/06/17 04:40:43;;;;;;;14.02;9.32;;;;;;;11.76;74.02;96094.56;2017708;29;20503;-71
2023/06/17 04:41:46;;;;;;;14.48;9.63;;;;;;;11.79;74.23;96090.06;2010755;29;20057;-71
2023/06/17 04:42:48;;;;;;;14.27;9.60;;;;;;;11.86;74.50;96095.81;2002664;29;20054;-71
2023/06/17 04:43:51;;;;;;;11.75;8.90;;;;;;;11.92;73.76;96090.31;2002939;29;20050;-71
2023/06/17 04:44:52;;;;;;;12.48;9.52;;;;;;;11.91;73.44;96083.44;2010709;29;20080;-71
2023/06/17 04:45:53;;;;;;;14.13;10.43;;;;;;;11.99;73.09;96091.69;2010529;29;20076;-71
2023/06/17 04:46:57;;;;;;;12.27;10.27;;;;;;;12.01;73.15;96086.41;2010492;29;20500;-71
2023/06/17 04:47:58;;;;;;;12.80;9.40;;;;;;;12.06;73.46;96090.47;2010546;29;20478;-71
2023/06/17 04:49:00;;;;;;;11.55;8.95;;;;;;;12.10;73.34;96091.13;2010167;29;20435;-71